createdAt,value
2022-08-02T00:00:12.030Z,15.99
2022-08-02T00:00:47.232Z,15.96
2022-08-02T00:01:22.767Z,15.84
2022-08-02T00:01:57.919Z,15.88
2022-08-02T00:02:32.917Z,15.89
2022-08-02T00:03:08.416Z,15.89
2022-08-02T00:03:43.703Z,15.93
2022-08-02T00:04:18.999Z,15.92
2022-08-02T00:04:54.099Z,15.94
2022-08-02T00:05:29.184Z,15.86
2022-08-02T00:06:04.191Z,15.93
2022-08-02T00:06:39.376Z,15.82
2022-08-02T00:07:14.869Z,15.82
2022-08-02T00:07:50.033Z,15.84
2022-08-02T00:08:25.321Z,15.86
2022-08-02T00:09:00.824Z,15.92
2022-08-02T00:09:36.189Z,15.85
2022-08-02T00:10:11.535Z,15.81
2022-08-02T00:10:46.915Z,15.89
2022-08-02T00:11:21.899Z,15.86
2022-08-02T00:11:57.190Z,15.85
2022-08-02T00:12:32.367Z,15.89
2022-08-02T00:13:07.568Z,15.84
2022-08-02T00:13:42.876Z,15.89
2022-08-02T00:14:18.252Z,15.84
2022-08-02T00:14:53.515Z,15.82
2022-08-02T00:15:28.677Z,15.81
2022-08-02T00:16:03.861Z,15.85
2022-08-02T00:16:39.072Z,15.88
2022-08-02T00:17:14.055Z,15.86
2022-08-02T00:17:49.265Z,15.78
2022-08-02T00:18:24.451Z,15.84
2022-08-02T00:18:59.716Z,15.84
2022-08-02T00:19:34.988Z,15.74
2022-08-02T00:20:10.057Z,15.84
2022-08-02T00:20:45.256Z,15.78
2022-08-02T00:21:20.222Z,15.76
2022-08-02T00:21:55.513Z,15.79
2022-08-02T00:22:30.605Z,15.75
2022-08-02T00:23:05.583Z,15.70
2022-08-02T00:24:03.344Z,15.78
2022-08-02T00:24:29.837Z,15.70
2022-08-02T00:24:51.867Z,15.74
2022-08-02T00:25:27.160Z,15.64
2022-08-02T00:26:02.324Z,15.66
2022-08-02T00:26:37.908Z,15.64
2022-08-02T00:27:13.179Z,15.67
2022-08-02T00:27:48.673Z,15.72
2022-08-02T00:28:27.926Z,15.70
2022-08-02T00:28:59.167Z,15.70
2022-08-02T00:29:34.663Z,15.64
2022-08-02T00:30:09.848Z,15.66
2022-08-02T00:30:45.142Z,15.72
2022-08-02T00:31:20.618Z,15.52
2022-08-02T00:31:55.720Z,15.72
2022-08-02T00:32:30.995Z,15.70
2022-08-02T00:33:06.189Z,15.66
2022-08-02T00:34:28.082Z,15.64
2022-08-02T00:34:28.593Z,15.64
2022-08-02T00:34:51.887Z,15.72
2022-08-02T00:35:27.371Z,15.68
2022-08-02T00:36:02.868Z,15.72
2022-08-02T00:36:37.954Z,15.66
2022-08-02T00:37:12.940Z,15.66
2022-08-02T00:37:48.433Z,15.64
2022-08-02T00:38:23.622Z,15.68
2022-08-02T00:38:58.831Z,15.63
2022-08-02T00:39:35.784Z,15.60
2022-08-02T00:40:09.606Z,15.56
2022-08-02T00:40:44.695Z,15.57
2022-08-02T00:41:20.071Z,15.63
2022-08-02T00:41:55.269Z,15.56
2022-08-02T00:42:30.437Z,15.63
2022-08-02T00:43:05.906Z,15.48
2022-08-02T00:43:41.120Z,15.63
2022-08-02T00:44:15.996Z,15.49
2022-08-02T00:44:51.299Z,15.59
2022-08-02T00:46:02.495Z,15.59
2022-08-02T00:46:03.772Z,15.56
2022-08-02T00:46:37.077Z,15.70
2022-08-02T00:47:13.782Z,15.74
2022-08-02T00:47:47.459Z,15.68
2022-08-02T00:48:22.737Z,15.61
2022-08-02T00:48:57.992Z,15.61
2022-08-02T00:49:33.327Z,15.59
2022-08-02T00:50:08.266Z,15.60
2022-08-02T00:50:43.576Z,15.61
2022-08-02T00:51:18.952Z,15.57
2022-08-02T00:51:54.244Z,15.56
2022-08-02T00:52:29.119Z,15.42
2022-08-02T00:53:04.593Z,15.39
2022-08-02T00:53:39.826Z,15.42
2022-08-02T00:54:14.896Z,15.41
2022-08-02T00:54:50.192Z,15.42
2022-08-02T00:55:31.208Z,15.56
2022-08-02T00:56:01.116Z,15.57
2022-08-02T00:56:36.104Z,15.57
2022-08-02T00:57:11.506Z,15.57
2022-08-02T00:57:46.719Z,15.61
2022-08-02T00:58:21.996Z,15.61
2022-08-02T00:58:57.337Z,15.59
2022-08-02T00:59:32.510Z,15.57
2022-08-02T01:00:07.607Z,15.57
2022-08-02T01:00:43.016Z,15.49
2022-08-02T01:01:18.049Z,15.52
2022-08-02T01:01:56.712Z,15.52
2022-08-02T01:02:28.085Z,15.49
2022-08-02T01:03:03.697Z,15.60
2022-08-02T01:03:38.889Z,15.52
2022-08-02T01:04:14.062Z,15.52
2022-08-02T01:04:49.568Z,15.56
2022-08-02T01:05:24.845Z,15.46
2022-08-02T01:06:10.954Z,15.48
2022-08-02T01:06:35.350Z,15.46
2022-08-02T01:07:12.586Z,15.56
2022-08-02T01:07:45.930Z,15.49
2022-08-02T01:08:21.008Z,15.57
2022-08-02T01:08:56.525Z,15.48
2022-08-02T01:09:32.001Z,15.45
2022-08-02T01:10:07.516Z,15.51
2022-08-02T01:10:42.929Z,15.42
2022-08-02T01:11:18.111Z,15.46
2022-08-02T01:11:53.318Z,15.36
2022-08-02T01:12:28.911Z,15.30
2022-08-02T01:13:04.630Z,15.45
2022-08-02T01:13:39.925Z,15.39
2022-08-02T01:14:15.014Z,15.43
2022-08-02T01:14:50.402Z,15.38
2022-08-02T01:15:36.261Z,15.38
2022-08-02T01:16:00.602Z,15.35
2022-08-02T01:16:35.898Z,15.38
2022-08-02T01:17:11.216Z,15.28
2022-08-02T01:17:46.884Z,15.38
2022-08-02T01:18:21.970Z,15.36
2022-08-02T01:18:57.098Z,15.35
2022-08-02T01:19:32.180Z,15.39
2022-08-02T01:20:07.287Z,15.38
2022-08-02T01:20:42.378Z,15.31
2022-08-02T01:21:17.467Z,15.35
2022-08-02T01:21:52.756Z,15.35
2022-08-02T01:22:59.358Z,15.31
2022-08-02T01:23:03.268Z,15.33
2022-08-02T01:23:38.546Z,15.30
2022-08-02T01:24:13.655Z,15.36
2022-08-02T01:24:49.038Z,15.36
2022-08-02T01:25:24.111Z,15.30
2022-08-02T01:25:59.306Z,15.31
2022-08-02T01:26:34.410Z,15.33
2022-08-02T01:27:09.781Z,15.33
2022-08-02T01:27:45.382Z,15.36
2022-08-02T01:28:20.765Z,15.27
2022-08-02T01:28:56.085Z,15.31
2022-08-02T01:29:31.468Z,15.23
2022-08-02T01:30:06.661Z,15.30
2022-08-02T01:30:42.262Z,15.28
2022-08-02T01:31:17.371Z,15.33
2022-08-02T01:31:52.842Z,15.28
2022-08-02T01:32:28.227Z,15.30
2022-08-02T01:33:03.618Z,15.35
2022-08-02T01:33:38.729Z,15.33
2022-08-02T01:34:13.905Z,15.28
2022-08-02T01:34:49.206Z,15.38
2022-08-02T01:35:24.784Z,15.36
2022-08-02T01:35:59.996Z,15.38
2022-08-02T01:36:35.087Z,15.39
2022-08-02T01:37:10.074Z,15.36
2022-08-02T01:37:45.078Z,15.33
2022-08-02T01:38:20.548Z,15.39
2022-08-02T01:38:55.872Z,15.39
2022-08-02T01:39:32.532Z,15.38
2022-08-02T01:40:05.934Z,15.39
2022-08-02T01:40:41.459Z,15.28
2022-08-02T01:41:16.644Z,15.30
2022-08-02T01:41:52.036Z,15.36
2022-08-02T01:42:27.017Z,15.30
2022-08-02T01:43:02.104Z,15.36
2022-08-02T01:43:37.218Z,15.33
2022-08-02T01:44:12.292Z,15.39
2022-08-02T01:44:47.588Z,15.39
2022-08-02T01:45:22.857Z,15.33
2022-08-02T01:45:58.161Z,15.42
2022-08-02T01:46:33.258Z,15.39
2022-08-02T01:47:08.353Z,15.41
2022-08-02T01:47:43.448Z,15.33
2022-08-02T01:48:19.134Z,15.42
2022-08-02T01:48:54.320Z,15.42
2022-08-02T01:49:29.389Z,15.45
2022-08-02T01:50:04.828Z,15.33
2022-08-02T01:50:40.015Z,15.43
2022-08-02T01:51:15.305Z,15.36
2022-08-02T01:51:50.492Z,15.33
2022-08-02T01:52:25.677Z,15.41
2022-08-02T01:53:00.885Z,15.42
2022-08-02T01:53:36.089Z,15.42
2022-08-02T01:54:11.390Z,15.42
2022-08-02T01:54:46.705Z,15.48
2022-08-02T01:55:21.981Z,15.42
2022-08-02T01:55:58.947Z,15.45
2022-08-02T01:56:32.373Z,15.39
2022-08-02T01:57:07.879Z,15.46
2022-08-02T01:57:42.882Z,15.38
2022-08-02T01:58:18.165Z,15.33
2022-08-02T01:58:53.490Z,15.41
2022-08-02T01:59:28.481Z,15.36
2022-08-02T02:00:03.597Z,15.41
2022-08-02T02:00:38.780Z,15.36
2022-08-02T02:01:15.319Z,15.43
2022-08-02T02:01:49.636Z,15.36
2022-08-02T02:02:26.299Z,15.38
2022-08-02T02:02:59.957Z,15.45
2022-08-02T02:03:35.141Z,15.36
2022-08-02T02:04:10.347Z,15.42
2022-08-02T02:04:45.464Z,15.46
2022-08-02T02:05:20.850Z,15.48
2022-08-02T02:05:55.846Z,15.48
2022-08-02T02:06:31.041Z,15.41
2022-08-02T02:07:06.136Z,15.35
2022-08-02T02:07:41.343Z,15.36
2022-08-02T02:08:27.368Z,15.38
2022-08-02T02:08:52.350Z,15.31
2022-08-02T02:09:27.456Z,15.27
2022-08-02T02:10:02.754Z,15.20
2022-08-02T02:10:37.832Z,15.23
2022-08-02T02:12:08.666Z,15.17
2022-08-02T02:12:09.654Z,15.30
2022-08-02T02:12:23.539Z,15.24
2022-08-02T02:12:58.545Z,15.24
2022-08-02T02:13:34.007Z,15.30
2022-08-02T02:14:09.295Z,15.31
2022-08-02T02:14:51.476Z,15.38
2022-08-02T02:15:19.870Z,15.31
2022-08-02T02:15:55.365Z,15.38
2022-08-02T02:16:30.880Z,15.39
2022-08-02T02:17:05.958Z,15.36
2022-08-02T02:17:57.178Z,15.38
2022-08-02T02:18:16.273Z,15.42
2022-08-02T02:18:51.682Z,15.41
2022-08-02T02:19:26.972Z,15.41
2022-08-02T02:20:02.059Z,15.27
2022-08-02T02:20:37.467Z,15.36
2022-08-02T02:21:12.732Z,15.31
2022-08-02T02:21:48.043Z,15.31
2022-08-02T02:22:23.340Z,15.38
2022-08-02T02:22:58.334Z,15.28
2022-08-02T02:23:35.694Z,15.31
2022-08-02T02:24:11.500Z,15.30
2022-08-02T02:24:44.040Z,15.33
2022-08-02T02:25:19.216Z,15.33
2022-08-02T02:25:55.901Z,15.35
2022-08-02T02:26:31.072Z,15.27
2022-08-02T02:27:04.619Z,15.31
2022-08-02T02:27:39.842Z,15.41
2022-08-02T02:28:15.227Z,15.39
2022-08-02T02:28:50.643Z,15.36
2022-08-02T02:29:26.129Z,15.38
2022-08-02T02:30:01.427Z,15.35
2022-08-02T02:30:36.694Z,15.33
2022-08-02T02:31:11.952Z,15.28
2022-08-02T02:31:47.074Z,15.38
2022-08-02T02:32:22.459Z,15.27
2022-08-02T02:32:57.807Z,15.31
2022-08-02T02:33:32.871Z,15.24
2022-08-02T02:34:08.158Z,15.33
2022-08-02T02:34:43.538Z,15.24
2022-08-02T02:35:18.542Z,15.28
2022-08-02T02:35:53.710Z,15.27
2022-08-02T02:36:28.937Z,15.27
2022-08-02T02:37:04.314Z,15.28
2022-08-02T02:37:39.599Z,15.24
2022-08-02T02:38:14.792Z,15.26
2022-08-02T02:38:50.199Z,15.21
2022-08-02T02:39:25.376Z,15.20
2022-08-02T02:40:00.662Z,15.24
2022-08-02T02:40:35.948Z,15.19
2022-08-02T02:41:11.156Z,15.21
2022-08-02T02:41:46.645Z,15.13
2022-08-02T02:42:21.730Z,15.17
2022-08-02T02:42:57.019Z,15.11
2022-08-02T02:43:32.393Z,15.17
2022-08-02T02:44:07.542Z,15.08
2022-08-02T02:44:42.761Z,15.11
2022-08-02T02:45:17.854Z,15.05
2022-08-02T02:45:53.350Z,15.08
2022-08-02T02:46:28.450Z,15.06
2022-08-02T02:47:03.638Z,15.09
2022-08-02T02:47:41.426Z,15.08
2022-08-02T02:48:14.040Z,15.11
2022-08-02T02:48:49.493Z,15.03
2022-08-02T02:49:24.587Z,14.99
2022-08-02T02:49:59.558Z,14.99
2022-08-02T02:50:34.778Z,15.08
2022-08-02T02:51:14.241Z,15.03
2022-08-02T02:51:44.900Z,15.01
2022-08-02T02:52:20.096Z,14.87
2022-08-02T02:52:55.299Z,14.98
2022-08-02T02:53:30.490Z,14.93
2022-08-02T02:54:32.044Z,14.98
2022-08-02T02:54:41.017Z,14.98
2022-08-02T02:55:16.397Z,14.93
2022-08-02T02:56:01.790Z,14.93
2022-08-02T02:56:27.046Z,14.98
2022-08-02T02:57:02.231Z,14.81
2022-08-02T02:57:37.610Z,14.84
2022-08-02T02:58:12.813Z,14.86
2022-08-02T02:58:48.238Z,14.90
2022-08-02T02:59:23.527Z,14.91
2022-08-02T02:59:58.724Z,14.87
2022-08-02T03:00:34.293Z,14.78
2022-08-02T03:01:09.637Z,14.83
2022-08-02T03:01:56.910Z,14.83
2022-08-02T03:02:19.979Z,14.90
2022-08-02T03:02:55.366Z,14.78
2022-08-02T03:03:30.451Z,14.75
2022-08-02T03:04:05.788Z,14.78
2022-08-02T03:04:55.598Z,14.74
2022-08-02T03:05:16.484Z,14.78
2022-08-02T03:05:51.656Z,14.72
2022-08-02T03:06:27.137Z,14.84
2022-08-02T03:07:02.468Z,14.72
2022-08-02T03:07:37.644Z,14.78
2022-08-02T03:08:13.040Z,14.81
2022-08-02T03:08:48.840Z,14.68
2022-08-02T03:09:23.946Z,14.84
2022-08-02T03:09:58.926Z,14.69
2022-08-02T03:10:34.432Z,14.68
2022-08-02T03:11:09.652Z,14.67
2022-08-02T03:11:44.923Z,14.80
2022-08-02T03:12:20.284Z,14.67
2022-08-02T03:12:55.409Z,14.67
2022-08-02T03:13:33.056Z,14.69
2022-08-02T03:14:06.136Z,14.62
2022-08-02T03:14:41.475Z,14.64
2022-08-02T03:15:16.589Z,14.67
2022-08-02T03:15:51.866Z,14.71
2022-08-02T03:16:26.877Z,14.65
2022-08-02T03:17:02.054Z,14.71
2022-08-02T03:17:37.257Z,14.65
2022-08-02T03:18:12.352Z,14.61
2022-08-02T03:18:48.157Z,14.64
2022-08-02T03:19:23.234Z,14.65
2022-08-02T03:19:58.651Z,14.65
2022-08-02T03:20:33.745Z,14.65
2022-08-02T03:21:09.036Z,14.69
2022-08-02T03:21:44.240Z,14.68
2022-08-02T03:22:19.250Z,14.69
2022-08-02T03:22:54.144Z,14.65
2022-08-02T03:23:29.123Z,14.65
2022-08-02T03:24:04.240Z,14.67
2022-08-02T03:24:39.374Z,14.67
2022-08-02T03:25:14.642Z,14.67
2022-08-02T03:25:50.031Z,14.74
2022-08-02T03:26:25.104Z,14.64
2022-08-02T03:27:00.209Z,14.62
2022-08-02T03:27:35.587Z,14.71
2022-08-02T03:28:10.800Z,14.69
2022-08-02T03:28:46.191Z,14.67
2022-08-02T03:29:21.380Z,14.64
2022-08-02T03:29:56.351Z,14.67
2022-08-02T03:30:31.517Z,14.71
2022-08-02T03:31:06.725Z,14.67
2022-08-02T03:31:42.101Z,14.57
2022-08-02T03:32:17.281Z,14.50
2022-08-02T03:32:52.474Z,14.57
2022-08-02T03:33:27.674Z,14.60
2022-08-02T03:34:03.095Z,14.57
2022-08-02T03:34:38.485Z,14.56
2022-08-02T03:35:13.588Z,14.47
2022-08-02T03:35:48.965Z,14.54
2022-08-02T03:36:24.264Z,14.50
2022-08-02T03:36:59.559Z,14.43
2022-08-02T03:37:34.552Z,14.50
2022-08-02T03:38:09.862Z,14.54
2022-08-02T03:38:45.163Z,14.47
2022-08-02T03:39:20.471Z,14.44
2022-08-02T03:39:55.547Z,14.52
2022-08-02T03:40:30.923Z,14.53
2022-08-02T03:41:06.195Z,14.54
2022-08-02T03:41:41.383Z,14.47
2022-08-02T03:42:16.696Z,14.53
2022-08-02T03:42:51.875Z,14.56
2022-08-02T03:43:28.838Z,14.52
2022-08-02T03:44:02.785Z,14.53
2022-08-02T03:44:37.992Z,14.64
2022-08-02T03:45:13.277Z,14.57
2022-08-02T03:45:48.579Z,14.53
2022-08-02T03:46:23.904Z,14.65
2022-08-02T03:46:59.179Z,14.61
2022-08-02T03:47:34.497Z,14.61
2022-08-02T03:48:30.557Z,14.64
2022-08-02T03:48:45.226Z,14.61
2022-08-02T03:49:20.658Z,14.60
2022-08-02T03:49:55.714Z,14.64
2022-08-02T03:50:30.821Z,14.67
2022-08-02T03:51:05.927Z,14.56
2022-08-02T03:51:41.315Z,14.57
2022-08-02T03:52:16.788Z,14.54
2022-08-02T03:52:52.187Z,14.52
2022-08-02T03:53:27.166Z,14.53
2022-08-02T03:54:02.400Z,14.56
2022-08-02T03:54:45.326Z,14.50
2022-08-02T03:55:12.696Z,14.57
2022-08-02T03:55:47.787Z,14.62
2022-08-02T03:56:23.590Z,14.62
2022-08-02T03:56:58.335Z,14.64
2022-08-02T03:57:33.714Z,14.53
2022-08-02T03:58:08.810Z,14.62
2022-08-02T03:58:48.471Z,14.65
2022-08-02T03:59:19.014Z,14.65
2022-08-02T03:59:54.133Z,14.68
2022-08-02T04:00:29.397Z,14.53
2022-08-02T04:01:04.796Z,14.54
2022-08-02T04:01:39.997Z,14.64
2022-08-02T04:02:15.480Z,14.53
2022-08-02T04:02:50.772Z,14.53
2022-08-02T04:03:26.070Z,14.62
2022-08-02T04:04:01.202Z,14.46
2022-08-02T04:04:36.392Z,14.47
2022-08-02T04:05:11.599Z,14.56
2022-08-02T04:06:03.379Z,14.53
2022-08-02T04:06:27.220Z,14.54
2022-08-02T04:06:57.361Z,14.57
2022-08-02T04:08:15.393Z,14.56
2022-08-02T04:08:37.045Z,14.54
2022-08-02T04:08:43.179Z,14.62
2022-08-02T04:09:18.371Z,14.50
2022-08-02T04:09:53.554Z,14.52
2022-08-02T04:10:28.665Z,14.60
2022-08-02T04:11:03.987Z,14.54
2022-08-02T04:11:38.932Z,14.56
2022-08-02T04:12:14.431Z,14.50
2022-08-02T04:12:49.509Z,14.53
2022-08-02T04:13:28.618Z,14.60
2022-08-02T04:14:00.127Z,14.60
2022-08-02T04:14:36.646Z,14.54
2022-08-02T04:15:10.608Z,14.57
2022-08-02T04:15:45.806Z,14.62
2022-08-02T04:16:21.191Z,14.57
2022-08-02T04:16:56.494Z,14.52
2022-08-02T04:17:31.605Z,14.56
2022-08-02T04:18:07.082Z,14.56
2022-08-02T04:18:42.689Z,14.52
2022-08-02T04:19:18.782Z,14.47
2022-08-02T04:19:53.779Z,14.53
2022-08-02T04:20:28.869Z,14.53
2022-08-02T04:21:04.263Z,14.49
2022-08-02T04:21:41.503Z,14.56
2022-08-02T04:22:14.759Z,14.50
2022-08-02T04:22:49.806Z,14.54
2022-08-02T04:23:25.199Z,14.53
2022-08-02T04:24:00.424Z,14.53
2022-08-02T04:24:35.606Z,14.53
2022-08-02T04:25:17.427Z,14.50
2022-08-02T04:25:46.508Z,14.46
2022-08-02T04:26:28.188Z,14.43
2022-08-02T04:26:58.031Z,14.47
2022-08-02T04:28:15.469Z,14.43
2022-08-02T04:28:17.688Z,14.37
2022-08-02T04:28:43.316Z,14.32
2022-08-02T04:29:18.441Z,14.31
2022-08-02T04:29:53.728Z,14.28
2022-08-02T04:30:28.908Z,14.34
2022-08-02T04:31:04.409Z,14.37
2022-08-02T04:31:39.726Z,14.37
2022-08-02T04:32:15.369Z,14.44
2022-08-02T04:32:50.529Z,14.32
2022-08-02T04:33:25.539Z,14.44
2022-08-02T04:34:00.757Z,14.34
2022-08-02T04:34:36.240Z,14.35
2022-08-02T04:35:19.112Z,14.44
2022-08-02T04:35:46.640Z,14.47
2022-08-02T04:36:31.324Z,14.43
2022-08-02T04:36:57.398Z,14.38
2022-08-02T04:37:32.352Z,14.50
2022-08-02T04:38:10.246Z,14.56
2022-08-02T04:38:42.800Z,14.57
2022-08-02T04:39:17.900Z,14.52
2022-08-02T04:39:53.095Z,14.49
2022-08-02T04:42:30.733Z,14.52
2022-08-02T04:43:06.035Z,14.54
2022-08-02T04:43:41.030Z,14.50
2022-08-02T04:44:16.319Z,14.53
2022-08-02T04:44:51.741Z,14.50
2022-08-02T04:45:27.370Z,14.54
2022-08-02T04:46:02.450Z,14.56
2022-08-02T04:46:37.562Z,14.62
2022-08-02T04:47:12.846Z,14.49
2022-08-02T04:48:02.242Z,14.54
2022-08-02T04:48:23.109Z,14.57
2022-08-02T04:48:58.288Z,14.61
2022-08-02T04:49:33.478Z,14.50
2022-08-02T04:50:08.596Z,14.61
2022-08-02T04:50:44.105Z,14.65
2022-08-02T04:51:19.323Z,14.65
2022-08-02T04:51:54.530Z,14.68
2022-08-02T04:52:29.617Z,14.67
2022-08-02T04:53:04.816Z,14.68
2022-08-02T04:53:40.097Z,14.68
2022-08-02T04:54:15.425Z,14.67
2022-08-02T04:54:50.938Z,14.68
2022-08-02T04:55:25.917Z,14.74
2022-08-02T04:56:01.016Z,14.71
2022-08-02T04:56:36.521Z,14.75
2022-08-02T04:57:11.612Z,14.68
2022-08-02T04:57:51.229Z,14.68
2022-08-02T04:58:40.052Z,14.72
2022-08-02T04:58:57.196Z,14.72
2022-08-02T04:59:32.669Z,14.69
2022-08-02T05:00:11.872Z,14.69
2022-08-02T05:00:47.255Z,14.67
2022-08-02T05:01:22.479Z,14.69
2022-08-02T05:01:57.658Z,14.64
2022-08-02T05:02:32.883Z,14.69
2022-08-02T05:03:08.208Z,14.72
2022-08-02T05:03:43.589Z,14.67
2022-08-02T05:04:18.511Z,14.72
2022-08-02T05:04:53.714Z,14.69
2022-08-02T05:05:28.821Z,14.64
2022-08-02T05:06:03.917Z,14.67
2022-08-02T05:06:39.325Z,14.67
2022-08-02T05:07:14.556Z,14.78
2022-08-02T05:07:49.836Z,14.74
2022-08-02T05:08:25.031Z,14.71
2022-08-02T05:09:00.590Z,14.81
2022-08-02T05:09:36.003Z,14.78
2022-08-02T05:10:11.294Z,14.78
2022-08-02T05:10:46.516Z,14.80
2022-08-02T05:11:21.611Z,14.78
2022-08-02T05:11:56.804Z,14.80
2022-08-02T05:12:32.137Z,14.81
2022-08-02T05:13:07.215Z,14.84
2022-08-02T05:13:57.475Z,14.88
2022-08-02T05:14:17.717Z,14.95
2022-08-02T05:14:53.021Z,14.90
2022-08-02T05:15:31.638Z,14.90
2022-08-02T05:16:03.450Z,15.01
2022-08-02T05:16:38.331Z,14.94
2022-08-02T05:17:13.404Z,15.01
2022-08-02T05:17:48.801Z,15.03
2022-08-02T05:18:23.714Z,15.03
2022-08-02T05:18:58.748Z,14.99
2022-08-02T05:19:33.833Z,15.11
2022-08-02T05:20:09.251Z,15.08
2022-08-02T05:20:44.864Z,15.05
2022-08-02T05:21:20.231Z,15.20
2022-08-02T05:21:55.554Z,15.19
2022-08-02T05:22:30.730Z,15.20
2022-08-02T05:23:06.256Z,15.27
2022-08-02T05:23:41.950Z,15.27
2022-08-02T05:24:17.262Z,15.24
2022-08-02T05:24:52.377Z,15.36
2022-08-02T05:25:27.682Z,15.39
2022-08-02T05:26:03.006Z,15.31
2022-08-02T05:26:38.297Z,15.35
2022-08-02T05:27:17.215Z,15.28
2022-08-02T05:27:48.614Z,15.42
2022-08-02T05:28:23.832Z,15.39
2022-08-02T05:28:58.946Z,15.33
2022-08-02T05:29:34.033Z,15.38
2022-08-02T05:30:09.141Z,15.49
2022-08-02T05:30:44.335Z,15.52
2022-08-02T05:31:19.939Z,15.52
2022-08-02T05:31:55.344Z,15.61
2022-08-02T05:32:30.641Z,15.59
2022-08-02T05:33:06.046Z,15.52
2022-08-02T05:33:41.492Z,15.52
2022-08-02T05:34:16.827Z,15.56
2022-08-02T05:34:52.155Z,15.60
2022-08-02T05:35:27.560Z,15.63
2022-08-02T05:36:02.767Z,15.61
2022-08-02T05:36:37.961Z,15.66
2022-08-02T05:37:13.097Z,15.74
2022-08-02T05:37:48.371Z,15.74
2022-08-02T05:38:26.203Z,15.76
2022-08-02T05:39:04.790Z,15.74
2022-08-02T05:39:34.201Z,15.78
2022-08-02T05:40:12.957Z,15.79
2022-08-02T05:40:54.382Z,15.85
2022-08-02T05:41:19.735Z,15.86
2022-08-02T05:41:54.921Z,15.86
2022-08-02T05:42:30.036Z,15.89
2022-08-02T05:43:05.342Z,15.94
2022-08-02T05:43:40.668Z,15.93
2022-08-02T05:44:15.853Z,15.93
2022-08-02T05:44:51.075Z,15.86
2022-08-02T05:45:26.379Z,15.92
2022-08-02T05:46:01.600Z,15.92
2022-08-02T05:46:36.730Z,16.03
2022-08-02T05:47:11.760Z,15.99
2022-08-02T05:47:46.777Z,16.09
2022-08-02T05:48:21.995Z,16.12
2022-08-02T05:48:57.513Z,16.03
2022-08-02T05:49:32.790Z,16.03
2022-08-02T05:50:08.152Z,16.14
2022-08-02T05:50:43.545Z,16.14
2022-08-02T05:51:18.567Z,16.11
2022-08-02T05:51:53.895Z,16.15
2022-08-02T05:52:29.038Z,16.11
2022-08-02T05:53:04.262Z,16.09
2022-08-02T05:53:39.286Z,16.20
2022-08-02T05:54:14.689Z,16.15
2022-08-02T05:54:49.988Z,16.14
2022-08-02T05:55:25.310Z,16.16
2022-08-02T05:56:02.501Z,16.27
2022-08-02T05:56:36.097Z,16.30
2022-08-02T05:57:11.306Z,16.30
2022-08-02T05:57:46.299Z,16.40
2022-08-02T05:58:21.504Z,16.40
2022-08-02T05:58:56.627Z,16.35
2022-08-02T05:59:31.835Z,16.34
2022-08-02T06:00:07.067Z,16.41
2022-08-02T06:00:42.385Z,16.49
2022-08-02T06:01:17.726Z,16.44
2022-08-02T06:01:53.019Z,16.48
2022-08-02T06:02:30.458Z,16.49
2022-08-02T06:03:03.812Z,16.48
2022-08-02T06:03:39.230Z,16.56
2022-08-02T06:04:14.751Z,16.55
2022-08-02T06:04:49.855Z,16.58
2022-08-02T06:05:25.351Z,16.63
2022-08-02T06:06:00.949Z,16.74
2022-08-02T06:06:35.966Z,16.71
2022-08-02T06:07:11.353Z,16.81
2022-08-02T06:07:46.866Z,16.80
2022-08-02T06:08:21.998Z,16.89
2022-08-02T06:08:57.208Z,16.95
2022-08-02T06:09:32.410Z,16.89
2022-08-02T06:10:07.501Z,16.93
2022-08-02T06:10:42.732Z,17.04
2022-08-02T06:11:18.038Z,16.93
2022-08-02T06:12:00.780Z,17.10
2022-08-02T06:12:28.645Z,17.08
2022-08-02T06:13:03.894Z,17.10
2022-08-02T06:13:39.111Z,17.15
2022-08-02T06:14:14.630Z,17.14
2022-08-02T06:14:54.059Z,17.13
2022-08-02T06:15:25.039Z,17.22
2022-08-02T06:16:00.149Z,17.28
2022-08-02T06:16:41.927Z,17.18
2022-08-02T06:17:10.860Z,17.26
2022-08-02T06:17:45.990Z,17.29
2022-08-02T06:18:27.800Z,17.33
2022-08-02T06:18:56.354Z,17.47
2022-08-02T06:19:31.650Z,17.46
2022-08-02T06:20:06.869Z,17.44
2022-08-02T06:20:42.354Z,17.47
2022-08-02T06:22:31.972Z,17.64
2022-08-02T06:22:32.182Z,17.62
2022-08-02T06:22:35.712Z,17.62
2022-08-02T06:23:03.805Z,17.67
2022-08-02T06:23:38.928Z,17.70
2022-08-02T06:24:14.376Z,17.71
2022-08-02T06:24:49.664Z,17.82
2022-08-02T06:25:50.728Z,17.92
2022-08-02T06:26:00.411Z,18.02
2022-08-02T06:26:36.117Z,17.91
2022-08-02T06:27:11.341Z,17.97
2022-08-02T06:27:46.552Z,18.04
2022-08-02T06:28:21.873Z,18.10
2022-08-02T06:28:56.983Z,18.17
2022-08-02T06:29:34.451Z,18.25
2022-08-02T06:30:07.491Z,18.25
2022-08-02T06:30:42.602Z,18.39
2022-08-02T06:31:17.817Z,18.34
2022-08-02T06:31:53.119Z,18.44
2022-08-02T06:32:28.460Z,18.37
2022-08-02T06:33:03.560Z,18.43
2022-08-02T06:33:38.907Z,18.42
2022-08-02T06:34:14.002Z,18.49
2022-08-02T06:34:49.517Z,18.58
2022-08-02T06:35:24.726Z,18.57
2022-08-02T06:36:00.061Z,18.59
2022-08-02T06:36:35.601Z,18.65
2022-08-02T06:37:11.119Z,18.67
2022-08-02T06:37:46.453Z,18.70
2022-08-02T06:38:21.574Z,18.65
2022-08-02T06:38:56.901Z,18.73
2022-08-02T06:39:32.022Z,18.82
2022-08-02T06:40:07.431Z,18.83
2022-08-02T06:40:42.548Z,18.90
2022-08-02T06:41:17.739Z,18.92
2022-08-02T06:41:53.066Z,18.92
2022-08-02T06:42:28.075Z,19.01
2022-08-02T06:43:03.410Z,18.98
2022-08-02T06:43:39.202Z,19.10
2022-08-02T06:44:45.935Z,19.02
2022-08-02T06:44:52.952Z,19.15
2022-08-02T06:45:24.554Z,19.17
2022-08-02T06:47:09.970Z,19.24
2022-08-02T06:47:10.447Z,19.20
2022-08-02T06:47:13.107Z,19.35
2022-08-02T06:47:46.059Z,19.42
2022-08-02T06:48:21.151Z,19.40
2022-08-02T06:48:56.417Z,19.43
2022-08-02T06:49:52.437Z,19.51
2022-08-02T06:50:07.001Z,19.60
2022-08-02T06:50:42.241Z,19.54
2022-08-02T06:51:17.430Z,19.50
2022-08-02T06:51:52.559Z,19.65
2022-08-02T06:52:29.268Z,19.66
2022-08-02T06:53:03.673Z,19.61
2022-08-02T06:53:39.204Z,19.65
2022-08-02T06:54:14.418Z,19.72
2022-08-02T06:54:49.526Z,19.79
2022-08-02T06:55:24.841Z,19.69
2022-08-02T06:55:59.932Z,19.69
2022-08-02T06:56:35.098Z,19.70
2022-08-02T06:57:10.357Z,19.76
2022-08-02T06:57:45.456Z,19.90
2022-08-02T06:58:20.880Z,19.91
2022-08-02T06:58:55.887Z,19.98
2022-08-02T06:59:31.005Z,20.16
2022-08-02T07:00:06.293Z,20.12
2022-08-02T07:00:41.736Z,20.09
2022-08-02T07:01:17.004Z,20.24
2022-08-02T07:01:52.264Z,20.18
2022-08-02T07:02:27.763Z,20.25
2022-08-02T07:03:02.956Z,20.31
2022-08-02T07:03:38.195Z,20.35
2022-08-02T07:04:14.756Z,20.41
2022-08-02T07:04:48.816Z,20.43
2022-08-02T07:05:23.647Z,20.42
2022-08-02T07:05:58.959Z,20.42
2022-08-02T07:06:34.410Z,20.59
2022-08-02T07:07:09.708Z,20.59
2022-08-02T07:07:44.811Z,20.62
2022-08-02T07:08:19.826Z,20.59
2022-08-02T07:09:18.309Z,20.58
2022-08-02T07:09:30.490Z,20.69
2022-08-02T07:10:05.804Z,20.74
2022-08-02T07:10:41.297Z,20.81
2022-08-02T07:11:16.398Z,20.77
2022-08-02T07:11:51.720Z,20.91
2022-08-02T07:12:26.933Z,20.90
2022-08-02T07:13:02.358Z,20.93
2022-08-02T07:13:39.874Z,20.99
2022-08-02T07:14:12.979Z,21.14
2022-08-02T07:14:48.208Z,21.14
2022-08-02T07:15:23.616Z,21.13
2022-08-02T07:15:59.153Z,21.13
2022-08-02T07:16:34.352Z,21.19
2022-08-02T07:17:09.680Z,21.14
2022-08-02T07:17:45.065Z,21.27
2022-08-02T07:18:20.594Z,21.20
2022-08-02T07:18:56.122Z,21.27
2022-08-02T07:19:37.749Z,21.39
2022-08-02T07:20:06.737Z,21.24
2022-08-02T07:20:41.933Z,21.34
2022-08-02T07:21:17.260Z,21.46
2022-08-02T07:21:59.437Z,21.36
2022-08-02T07:22:27.666Z,21.45
2022-08-02T07:23:03.178Z,21.53
2022-08-02T07:23:38.302Z,21.57
2022-08-02T07:24:13.706Z,21.63
2022-08-02T07:24:49.039Z,21.63
2022-08-02T07:25:24.350Z,21.72
2022-08-02T07:26:03.481Z,21.69
2022-08-02T07:26:44.978Z,21.79
2022-08-02T07:27:11.594Z,21.83
2022-08-02T07:27:45.421Z,21.85
2022-08-02T07:28:24.257Z,21.92
2022-08-02T07:28:56.468Z,21.95
2022-08-02T07:29:32.728Z,21.95
2022-08-02T07:30:07.008Z,22.07
2022-08-02T07:30:42.645Z,22.04
2022-08-02T07:31:18.008Z,22.04
2022-08-02T07:31:53.213Z,22.19
2022-08-02T07:32:28.561Z,22.07
2022-08-02T07:33:03.948Z,22.19
2022-08-02T07:33:40.866Z,22.20
2022-08-02T07:34:14.526Z,22.17
2022-08-02T07:34:50.605Z,22.25
2022-08-02T07:35:25.590Z,22.20
2022-08-02T07:36:01.642Z,22.28